sensor_id;sensor_type;location;lat;lon;timestamp;temperature;humidity
84435;SHT30;74664;45.620;5.138;2023-12-20T00:00:19;4.19;76.18
84435;SHT30;74664;45.620;5.138;2023-12-20T00:02:46;4.23;76.17
84435;SHT30;74664;45.620;5.138;2023-12-20T00:05:13;4.23;76.15
84435;SHT30;74664;45.620;5.138;2023-12-20T00:07:40;4.26;76.12
84435;SHT30;74664;45.620;5.138;2023-12-20T00:10:07;4.26;76.00
84435;SHT30;74664;45.620;5.138;2023-12-20T00:12:34;4.23;76.04
84435;SHT30;74664;45.620;5.138;2023-12-20T00:15:01;4.23;76.04
84435;SHT30;74664;45.620;5.138;2023-12-20T00:17:29;4.29;76.01
84435;SHT30;74664;45.620;5.138;2023-12-20T00:19:55;4.24;76.03
84435;SHT30;74664;45.620;5.138;2023-12-20T00:22:22;4.26;76.00
84435;SHT30;74664;45.620;5.138;2023-12-20T00:24:49;4.26;76.05
84435;SHT30;74664;45.620;5.138;2023-12-20T00:27:16;4.26;76.06
84435;SHT30;74664;45.620;5.138;2023-12-20T00:29:42;4.29;76.02
84435;SHT30;74664;45.620;5.138;2023-12-20T00:32:13;4.29;76.02
84435;SHT30;74664;45.620;5.138;2023-12-20T00:34:41;4.27;76.04
84435;SHT30;74664;45.620;5.138;2023-12-20T00:37:07;4.27;76.09
84435;SHT30;74664;45.620;5.138;2023-12-20T00:39:36;4.29;76.08
84435;SHT30;74664;45.620;5.138;2023-12-20T00:42:03;4.30;76.11
84435;SHT30;74664;45.620;5.138;2023-12-20T00:44:29;4.30;76.15
84435;SHT30;74664;45.620;5.138;2023-12-20T00:46:57;4.30;76.20
84435;SHT30;74664;45.620;5.138;2023-12-20T00:49:23;4.32;76.29
84435;SHT30;74664;45.620;5.138;2023-12-20T00:51:51;4.34;76.22
84435;SHT30;74664;45.620;5.138;2023-12-20T00:54:18;4.38;76.25
84435;SHT30;74664;45.620;5.138;2023-12-20T00:56:45;4.40;76.20
84435;SHT30;74664;45.620;5.138;2023-12-20T00:59:13;4.38;76.23
84435;SHT30;74664;45.620;5.138;2023-12-20T01:01:40;4.41;76.20
84435;SHT30;74664;45.620;5.138;2023-12-20T01:04:07;4.40;76.10
84435;SHT30;74664;45.620;5.138;2023-12-20T01:06:34;4.44;76.06
84435;SHT30;74664;45.620;5.138;2023-12-20T01:09:02;4.41;76.14
84435;SHT30;74664;45.620;5.138;2023-12-20T01:11:29;4.41;76.22
84435;SHT30;74664;45.620;5.138;2023-12-20T01:13:55;4.40;76.30
84435;SHT30;74664;45.620;5.138;2023-12-20T01:16:22;4.43;76.27
84435;SHT30;74664;45.620;5.138;2023-12-20T01:18:49;4.40;76.27
84435;SHT30;74664;45.620;5.138;2023-12-20T01:21:15;4.41;76.19
84435;SHT30;74664;45.620;5.138;2023-12-20T01:23:42;4.38;76.30
84435;SHT30;74664;45.620;5.138;2023-12-20T01:26:10;4.40;76.36
84435;SHT30;74664;45.620;5.138;2023-12-20T01:28:37;4.37;76.43
84435;SHT30;74664;45.620;5.138;2023-12-20T01:31:04;4.37;76.49
84435;SHT30;74664;45.620;5.138;2023-12-20T01:33:31;4.36;76.54
84435;SHT30;74664;45.620;5.138;2023-12-20T01:35:58;4.37;76.64
84435;SHT30;74664;45.620;5.138;2023-12-20T01:38:24;4.41;76.61
84435;SHT30;74664;45.620;5.138;2023-12-20T01:40:51;4.40;76.67
84435;SHT30;74664;45.620;5.138;2023-12-20T01:43:19;4.41;76.66
84435;SHT30;74664;45.620;5.138;2023-12-20T01:45:46;4.44;76.75
84435;SHT30;74664;45.620;5.138;2023-12-20T01:48:14;4.44;76.81
84435;SHT30;74664;45.620;5.138;2023-12-20T01:50:43;4.47;76.82
84435;SHT30;74664;45.620;5.138;2023-12-20T01:53:12;4.46;76.75
84435;SHT30;74664;45.620;5.138;2023-12-20T01:55:40;4.47;76.76
84435;SHT30;74664;45.620;5.138;2023-12-20T01:58:07;4.48;76.57
84435;SHT30;74664;45.620;5.138;2023-12-20T02:00:37;4.48;76.51
84435;SHT30;74664;45.620;5.138;2023-12-20T02:03:04;4.47;76.53
84435;SHT30;74664;45.620;5.138;2023-12-20T02:05:31;4.46;76.51
84435;SHT30;74664;45.620;5.138;2023-12-20T02:07:59;4.41;76.53
84435;SHT30;74664;45.620;5.138;2023-12-20T02:10:26;4.40;76.54
84435;SHT30;74664;45.620;5.138;2023-12-20T02:12:53;4.41;76.63
84435;SHT30;74664;45.620;5.138;2023-12-20T02:15:20;4.41;76.64
84435;SHT30;74664;45.620;5.138;2023-12-20T02:17:49;4.41;76.62
84435;SHT30;74664;45.620;5.138;2023-12-20T02:20:16;4.36;76.72
84435;SHT30;74664;45.620;5.138;2023-12-20T02:22:44;4.37;76.84
84435;SHT30;74664;45.620;5.138;2023-12-20T02:25:13;4.40;76.94
84435;SHT30;74664;45.620;5.138;2023-12-20T02:27:43;4.40;76.96
84435;SHT30;74664;45.620;5.138;2023-12-20T02:30:10;4.43;76.97
84435;SHT30;74664;45.620;5.138;2023-12-20T02:32:40;4.43;76.97
84435;SHT30;74664;45.620;5.138;2023-12-20T02:35:07;4.44;77.06
84435;SHT30;74664;45.620;5.138;2023-12-20T02:37:33;4.46;76.88
84435;SHT30;74664;45.620;5.138;2023-12-20T02:40:02;4.47;77.02
84435;SHT30;74664;45.620;5.138;2023-12-20T02:42:29;4.47;77.04
84435;SHT30;74664;45.620;5.138;2023-12-20T02:44:56;4.47;77.02
84435;SHT30;74664;45.620;5.138;2023-12-20T02:47:23;4.51;77.04
84435;SHT30;74664;45.620;5.138;2023-12-20T02:49:50;4.54;77.00
84435;SHT30;74664;45.620;5.138;2023-12-20T02:52:18;4.53;77.00
84435;SHT30;74664;45.620;5.138;2023-12-20T02:54:44;4.53;77.02
84435;SHT30;74664;45.620;5.138;2023-12-20T02:57:15;4.53;77.19
84435;SHT30;74664;45.620;5.138;2023-12-20T02:59:41;4.56;77.19
84435;SHT30;74664;45.620;5.138;2023-12-20T03:02:08;4.60;77.13
84435;SHT30;74664;45.620;5.138;2023-12-20T03:04:35;4.61;77.19
84435;SHT30;74664;45.620;5.138;2023-12-20T03:07:01;4.61;77.18
84435;SHT30;74664;45.620;5.138;2023-12-20T03:09:28;4.64;77.24
84435;SHT30;74664;45.620;5.138;2023-12-20T03:11:55;4.64;77.22
84435;SHT30;74664;45.620;5.138;2023-12-20T03:14:23;4.69;77.20
84435;SHT30;74664;45.620;5.138;2023-12-20T03:16:50;4.68;77.26
84435;SHT30;74664;45.620;5.138;2023-12-20T03:19:17;4.69;77.32
84435;SHT30;74664;45.620;5.138;2023-12-20T03:21:44;4.69;77.34
84435;SHT30;74664;45.620;5.138;2023-12-20T03:24:11;4.74;77.24
84435;SHT30;74664;45.620;5.138;2023-12-20T03:26:38;4.71;77.31
84435;SHT30;74664;45.620;5.138;2023-12-20T03:29:04;4.77;77.25
84435;SHT30;74664;45.620;5.138;2023-12-20T03:31:32;4.77;77.33
84435;SHT30;74664;45.620;5.138;2023-12-20T03:33:59;4.78;77.31
84435;SHT30;74664;45.620;5.138;2023-12-20T03:36:26;4.81;77.33
84435;SHT30;74664;45.620;5.138;2023-12-20T03:38:52;4.78;77.28
84435;SHT30;74664;45.620;5.138;2023-12-20T03:41:19;4.82;77.33
84435;SHT30;74664;45.620;5.138;2023-12-20T03:43:46;4.81;77.36
84435;SHT30;74664;45.620;5.138;2023-12-20T03:46:12;4.84;77.33
84435;SHT30;74664;45.620;5.138;2023-12-20T03:48:40;4.84;77.45
84435;SHT30;74664;45.620;5.138;2023-12-20T03:51:07;4.84;77.42
84435;SHT30;74664;45.620;5.138;2023-12-20T03:53:34;4.86;77.40
84435;SHT30;74664;45.620;5.138;2023-12-20T03:56:00;4.86;77.38
84435;SHT30;74664;45.620;5.138;2023-12-20T03:58:27;4.86;77.36
84435;SHT30;74664;45.620;5.138;2023-12-20T04:00:54;4.88;77.40
84435;SHT30;74664;45.620;5.138;2023-12-20T04:03:20;4.86;77.46
84435;SHT30;74664;45.620;5.138;2023-12-20T04:05:48;4.88;77.45
84435;SHT30;74664;45.620;5.138;2023-12-20T04:08:15;4.88;77.50
84435;SHT30;74664;45.620;5.138;2023-12-20T04:10:41;4.85;77.52
84435;SHT30;74664;45.620;5.138;2023-12-20T04:13:08;4.92;77.56
84435;SHT30;74664;45.620;5.138;2023-12-20T04:15:34;4.89;77.55
84435;SHT30;74664;45.620;5.138;2023-12-20T04:18:01;4.85;77.52
84435;SHT30;74664;45.620;5.138;2023-12-20T04:20:27;4.88;77.57
84435;SHT30;74664;45.620;5.138;2023-12-20T04:22:55;4.86;77.59
84435;SHT30;74664;45.620;5.138;2023-12-20T04:25:22;4.85;77.58
84435;SHT30;74664;45.620;5.138;2023-12-20T04:27:49;4.88;77.66
84435;SHT30;74664;45.620;5.138;2023-12-20T04:30:15;4.89;77.69
84435;SHT30;74664;45.620;5.138;2023-12-20T04:32:43;4.89;77.79
84435;SHT30;74664;45.620;5.138;2023-12-20T04:35:10;4.92;77.76
84435;SHT30;74664;45.620;5.138;2023-12-20T04:37:37;4.92;77.73
84435;SHT30;74664;45.620;5.138;2023-12-20T04:40:06;4.92;77.73
84435;SHT30;74664;45.620;5.138;2023-12-20T04:42:33;4.95;77.78
84435;SHT30;74664;45.620;5.138;2023-12-20T04:45:00;4.99;77.72
84435;SHT30;74664;45.620;5.138;2023-12-20T04:47:26;4.99;77.81
84435;SHT30;74664;45.620;5.138;2023-12-20T04:49:53;4.99;77.74
84435;SHT30;74664;45.620;5.138;2023-12-20T04:52:20;4.99;77.74
84435;SHT30;74664;45.620;5.138;2023-12-20T04:54:46;5.02;77.78
84435;SHT30;74664;45.620;5.138;2023-12-20T04:57:15;5.02;77.74
84435;SHT30;74664;45.620;5.138;2023-12-20T04:59:41;5.05;77.75
84435;SHT30;74664;45.620;5.138;2023-12-20T05:02:08;5.04;77.82
84435;SHT30;74664;45.620;5.138;2023-12-20T05:04:35;5.05;77.74
84435;SHT30;74664;45.620;5.138;2023-12-20T05:07:01;5.06;77.71
84435;SHT30;74664;45.620;5.138;2023-12-20T05:09:30;5.11;77.68
84435;SHT30;74664;45.620;5.138;2023-12-20T05:11:56;5.09;77.63
84435;SHT30;74664;45.620;5.138;2023-12-20T05:14:25;5.11;77.63
84435;SHT30;74664;45.620;5.138;2023-12-20T05:16:51;5.11;77.64
84435;SHT30;74664;45.620;5.138;2023-12-20T05:19:18;5.12;77.70
84435;SHT30;74664;45.620;5.138;2023-12-20T05:21:44;5.12;77.63
84435;SHT30;74664;45.620;5.138;2023-12-20T05:24:11;5.13;77.65
84435;SHT30;74664;45.620;5.138;2023-12-20T05:26:38;5.13;77.60
84435;SHT30;74664;45.620;5.138;2023-12-20T05:29:04;5.13;77.68
84435;SHT30;74664;45.620;5.138;2023-12-20T05:31:32;5.13;77.65
84435;SHT30;74664;45.620;5.138;2023-12-20T05:33:59;5.13;77.64
84435;SHT30;74664;45.620;5.138;2023-12-20T05:36:26;5.15;77.58
84435;SHT30;74664;45.620;5.138;2023-12-20T05:38:53;5.13;77.58
84435;SHT30;74664;45.620;5.138;2023-12-20T05:41:20;5.11;77.64
84435;SHT30;74664;45.620;5.138;2023-12-20T05:43:48;5.13;77.58
84435;SHT30;74664;45.620;5.138;2023-12-20T05:46:15;5.13;77.59
84435;SHT30;74664;45.620;5.138;2023-12-20T05:48:43;5.11;77.56
84435;SHT30;74664;45.620;5.138;2023-12-20T05:51:11;5.05;77.52
84435;SHT30;74664;45.620;5.138;2023-12-20T05:53:38;5.06;77.61
84435;SHT30;74664;45.620;5.138;2023-12-20T05:56:05;5.05;77.58
84435;SHT30;74664;45.620;5.138;2023-12-20T05:58:32;5.02;77.77
84435;SHT30;74664;45.620;5.138;2023-12-20T06:00:59;5.05;77.79
84435;SHT30;74664;45.620;5.138;2023-12-20T06:03:25;5.05;77.83
84435;SHT30;74664;45.620;5.138;2023-12-20T06:05:54;5.05;77.85
84435;SHT30;74664;45.620;5.138;2023-12-20T06:08:20;5.05;77.88
84435;SHT30;74664;45.620;5.138;2023-12-20T06:10:47;5.05;77.89
84435;SHT30;74664;45.620;5.138;2023-12-20T06:13:14;5.06;77.94
84435;SHT30;74664;45.620;5.138;2023-12-20T06:15:40;5.09;77.80
84435;SHT30;74664;45.620;5.138;2023-12-20T06:18:07;5.06;77.86
84435;SHT30;74664;45.620;5.138;2023-12-20T06:20:36;5.05;78.01
84435;SHT30;74664;45.620;5.138;2023-12-20T06:23:04;5.06;77.92
84435;SHT30;74664;45.620;5.138;2023-12-20T06:25:31;5.05;77.96
84435;SHT30;74664;45.620;5.138;2023-12-20T06:28:00;5.05;78.05
84435;SHT30;74664;45.620;5.138;2023-12-20T06:30:26;5.06;78.30
84435;SHT30;74664;45.620;5.138;2023-12-20T06:32:53;5.02;78.04
84435;SHT30;74664;45.620;5.138;2023-12-20T06:35:25;5.04;78.07
84435;SHT30;74664;45.620;5.138;2023-12-20T06:37:52;5.00;78.20
84435;SHT30;74664;45.620;5.138;2023-12-20T06:40:22;5.02;78.24
84435;SHT30;74664;45.620;5.138;2023-12-20T06:42:49;5.04;78.30
84435;SHT30;74664;45.620;5.138;2023-12-20T06:45:16;5.06;78.23
84435;SHT30;74664;45.620;5.138;2023-12-20T06:47:42;5.08;78.20
84435;SHT30;74664;45.620;5.138;2023-12-20T06:50:09;5.11;78.19
84435;SHT30;74664;45.620;5.138;2023-12-20T06:52:36;5.11;78.17
84435;SHT30;74664;45.620;5.138;2023-12-20T06:55:03;5.15;78.19
84435;SHT30;74664;45.620;5.138;2023-12-20T06:57:31;5.13;78.12
84435;SHT30;74664;45.620;5.138;2023-12-20T06:59:58;5.13;78.03
84435;SHT30;74664;45.620;5.138;2023-12-20T07:02:27;5.11;77.95
84435;SHT30;74664;45.620;5.138;2023-12-20T07:04:55;5.06;78.16
84435;SHT30;74664;45.620;5.138;2023-12-20T07:07:22;5.09;78.30
84435;SHT30;74664;45.620;5.138;2023-12-20T07:09:50;5.06;78.25
84435;SHT30;74664;45.620;5.138;2023-12-20T07:12:16;5.12;78.28
84435;SHT30;74664;45.620;5.138;2023-12-20T07:14:46;5.13;78.34
84435;SHT30;74664;45.620;5.138;2023-12-20T07:17:12;5.13;78.35
84435;SHT30;74664;45.620;5.138;2023-12-20T07:19:40;5.13;78.34
84435;SHT30;74664;45.620;5.138;2023-12-20T07:22:07;5.18;78.32
84435;SHT30;74664;45.620;5.138;2023-12-20T07:24:34;5.22;78.35
84435;SHT30;74664;45.620;5.138;2023-12-20T07:27:01;5.22;78.34
84435;SHT30;74664;45.620;5.138;2023-12-20T07:29:28;5.25;78.39
84435;SHT30;74664;45.620;5.138;2023-12-20T07:31:56;5.26;78.52
84435;SHT30;74664;45.620;5.138;2023-12-20T07:34:23;5.27;78.49
84435;SHT30;74664;45.620;5.138;2023-12-20T07:36:49;5.29;78.39
84435;SHT30;74664;45.620;5.138;2023-12-20T07:39:16;5.32;78.40
84435;SHT30;74664;45.620;5.138;2023-12-20T07:41:44;5.33;78.30
84435;SHT30;74664;45.620;5.138;2023-12-20T07:44:10;5.32;78.41
84435;SHT30;74664;45.620;5.138;2023-12-20T07:46:37;5.32;78.31
84435;SHT30;74664;45.620;5.138;2023-12-20T07:49:05;5.32;78.20
84435;SHT30;74664;45.620;5.138;2023-12-20T07:51:32;5.32;78.35
84435;SHT30;74664;45.620;5.138;2023-12-20T07:53:58;5.32;78.40
84435;SHT30;74664;45.620;5.138;2023-12-20T07:56:25;5.35;78.46
84435;SHT30;74664;45.620;5.138;2023-12-20T07:58:52;5.32;78.39
84435;SHT30;74664;45.620;5.138;2023-12-20T08:01:18;5.35;78.32
84435;SHT30;74664;45.620;5.138;2023-12-20T08:03:45;5.33;78.34
84435;SHT30;74664;45.620;5.138;2023-12-20T08:06:14;5.32;78.39
84435;SHT30;74664;45.620;5.138;2023-12-20T08:08:42;5.36;78.25
84435;SHT30;74664;45.620;5.138;2023-12-20T08:11:09;5.36;78.44
84435;SHT30;74664;45.620;5.138;2023-12-20T08:13:35;5.33;78.38
84435;SHT30;74664;45.620;5.138;2023-12-20T08:16:02;5.29;78.37
84435;SHT30;74664;45.620;5.138;2023-12-20T08:18:30;5.26;78.55
84435;SHT30;74664;45.620;5.138;2023-12-20T08:20:56;5.26;79.22
84435;SHT30;74664;45.620;5.138;2023-12-20T08:23:24;5.22;78.94
84435;SHT30;74664;45.620;5.138;2023-12-20T08:25:51;5.22;79.64
84435;SHT30;74664;45.620;5.138;2023-12-20T08:28:18;5.25;79.53
84435;SHT30;74664;45.620;5.138;2023-12-20T08:30:45;5.27;79.16
84435;SHT30;74664;45.620;5.138;2023-12-20T08:33:11;5.27;79.45
84435;SHT30;74664;45.620;5.138;2023-12-20T08:35:38;5.29;79.60
84435;SHT30;74664;45.620;5.138;2023-12-20T08:38:05;5.33;79.27
84435;SHT30;74664;45.620;5.138;2023-12-20T08:40:33;5.36;79.74
84435;SHT30;74664;45.620;5.138;2023-12-20T08:43:01;5.37;80.05
84435;SHT30;74664;45.620;5.138;2023-12-20T08:45:27;5.39;80.50
84435;SHT30;74664;45.620;5.138;2023-12-20T08:47:54;5.40;79.64
84435;SHT30;74664;45.620;5.138;2023-12-20T08:50:20;5.42;80.64
84435;SHT30;74664;45.620;5.138;2023-12-20T08:52:46;5.44;80.10
84435;SHT30;74664;45.620;5.138;2023-12-20T08:55:13;5.44;80.44
84435;SHT30;74664;45.620;5.138;2023-12-20T08:57:43;5.47;80.71
84435;SHT30;74664;45.620;5.138;2023-12-20T09:00:11;5.50;80.49
84435;SHT30;74664;45.620;5.138;2023-12-20T09:02:37;5.53;80.35
84435;SHT30;74664;45.620;5.138;2023-12-20T09:05:04;5.54;80.32
84435;SHT30;74664;45.620;5.138;2023-12-20T09:07:34;5.57;80.78
84435;SHT30;74664;45.620;5.138;2023-12-20T09:10:00;5.58;80.40
84435;SHT30;74664;45.620;5.138;2023-12-20T09:12:27;5.61;80.78
84435;SHT30;74664;45.620;5.138;2023-12-20T09:14:55;5.61;80.58
84435;SHT30;74664;45.620;5.138;2023-12-20T09:17:22;5.64;80.50
84435;SHT30;74664;45.620;5.138;2023-12-20T09:19:49;5.66;80.11
84435;SHT30;74664;45.620;5.138;2023-12-20T09:22:17;5.67;80.45
84435;SHT30;74664;45.620;5.138;2023-12-20T09:24:44;5.68;80.50
84435;SHT30;74664;45.620;5.138;2023-12-20T09:27:11;5.71;80.68
84435;SHT30;74664;45.620;5.138;2023-12-20T09:29:38;5.74;81.00
84435;SHT30;74664;45.620;5.138;2023-12-20T09:32:06;5.77;80.50
84435;SHT30;74664;45.620;5.138;2023-12-20T09:34:33;5.78;80.96
84435;SHT30;74664;45.620;5.138;2023-12-20T09:37:00;5.83;80.81
84435;SHT30;74664;45.620;5.138;2023-12-20T09:39:28;5.81;81.23
84435;SHT30;74664;45.620;5.138;2023-12-20T09:42:00;5.85;80.97
84435;SHT30;74664;45.620;5.138;2023-12-20T09:44:27;5.90;81.34
84435;SHT30;74664;45.620;5.138;2023-12-20T09:46:55;5.95;81.14
84435;SHT30;74664;45.620;5.138;2023-12-20T09:49:23;5.99;81.13
84435;SHT30;74664;45.620;5.138;2023-12-20T09:51:51;6.05;81.31
84435;SHT30;74664;45.620;5.138;2023-12-20T09:54:18;6.08;81.12
84435;SHT30;74664;45.620;5.138;2023-12-20T09:56:45;6.11;81.27
84435;SHT30;74664;45.620;5.138;2023-12-20T09:59:12;6.12;81.62
84435;SHT30;74664;45.620;5.138;2023-12-20T10:01:40;6.15;81.39
84435;SHT30;74664;45.620;5.138;2023-12-20T10:04:08;6.24;80.67
84435;SHT30;74664;45.620;5.138;2023-12-20T10:06:39;6.25;80.90
84435;SHT30;74664;45.620;5.138;2023-12-20T10:09:05;6.30;81.67
84435;SHT30;74664;45.620;5.138;2023-12-20T10:11:35;6.35;80.61
84435;SHT30;74664;45.620;5.138;2023-12-20T10:14:03;6.39;81.47
84435;SHT30;74664;45.620;5.138;2023-12-20T10:16:31;6.40;81.30
84435;SHT30;74664;45.620;5.138;2023-12-20T10:18:58;6.45;81.08
84435;SHT30;74664;45.620;5.138;2023-12-20T10:21:25;6.47;81.23
84435;SHT30;74664;45.620;5.138;2023-12-20T10:23:54;6.53;81.24
84435;SHT30;74664;45.620;5.138;2023-12-20T10:26:20;6.56;81.40
84435;SHT30;74664;45.620;5.138;2023-12-20T10:28:50;6.58;81.35
84435;SHT30;74664;45.620;5.138;2023-12-20T10:31:28;6.58;81.21
84435;SHT30;74664;45.620;5.138;2023-12-20T10:33:56;6.63;81.81
84435;SHT30;74664;45.620;5.138;2023-12-20T10:36:24;6.67;81.22
84435;SHT30;74664;45.620;5.138;2023-12-20T10:38:54;6.72;82.16
84435;SHT30;74664;45.620;5.138;2023-12-20T10:41:25;6.76;81.90
84435;SHT30;74664;45.620;5.138;2023-12-20T10:43:54;6.80;81.19
84435;SHT30;74664;45.620;5.138;2023-12-20T10:46:22;6.79;81.84
84435;SHT30;74664;45.620;5.138;2023-12-20T10:48:51;6.83;82.85
84435;SHT30;74664;45.620;5.138;2023-12-20T10:51:20;6.83;81.45
84435;SHT30;74664;45.620;5.138;2023-12-20T10:53:48;6.83;81.93
84435;SHT30;74664;45.620;5.138;2023-12-20T10:56:17;6.83;81.95
84435;SHT30;74664;45.620;5.138;2023-12-20T10:58:46;6.84;81.52
84435;SHT30;74664;45.620;5.138;2023-12-20T11:01:13;6.86;81.77
84435;SHT30;74664;45.620;5.138;2023-12-20T11:03:44;6.86;82.25
84435;SHT30;74664;45.620;5.138;2023-12-20T11:06:24;6.88;81.85
84435;SHT30;74664;45.620;5.138;2023-12-20T11:08:57;6.87;81.61
84435;SHT30;74664;45.620;5.138;2023-12-20T11:11:38;6.88;81.86
84435;SHT30;74664;45.620;5.138;2023-12-20T11:14:14;6.88;81.93
84435;SHT30;74664;45.620;5.138;2023-12-20T11:16:42;6.90;81.64
84435;SHT30;74664;45.620;5.138;2023-12-20T11:19:11;6.93;82.58
84435;SHT30;74664;45.620;5.138;2023-12-20T11:21:39;6.97;82.33
84435;SHT30;74664;45.620;5.138;2023-12-20T11:24:06;6.95;82.59
84435;SHT30;74664;45.620;5.138;2023-12-20T11:26:34;7.01;82.39
84435;SHT30;74664;45.620;5.138;2023-12-20T11:29:31;7.05;82.18
84435;SHT30;74664;45.620;5.138;2023-12-20T11:32:00;7.05;82.07
84435;SHT30;74664;45.620;5.138;2023-12-20T11:34:28;7.11;82.06
84435;SHT30;74664;45.620;5.138;2023-12-20T11:36:58;7.19;82.19
84435;SHT30;74664;45.620;5.138;2023-12-20T11:39:25;7.26;82.11
84435;SHT30;74664;45.620;5.138;2023-12-20T11:41:55;7.32;82.02
84435;SHT30;74664;45.620;5.138;2023-12-20T11:44:25;7.38;82.04
84435;SHT30;74664;45.620;5.138;2023-12-20T11:46:51;7.45;81.32
84435;SHT30;74664;45.620;5.138;2023-12-20T11:49:23;7.48;81.29
84435;SHT30;74664;45.620;5.138;2023-12-20T11:51:49;7.51;81.25
84435;SHT30;74664;45.620;5.138;2023-12-20T11:54:16;7.54;81.36
84435;SHT30;74664;45.620;5.138;2023-12-20T11:56:43;7.56;80.59
84435;SHT30;74664;45.620;5.138;2023-12-20T11:59:11;7.61;80.71
84435;SHT30;74664;45.620;5.138;2023-12-20T12:01:40;7.65;80.26
84435;SHT30;74664;45.620;5.138;2023-12-20T12:04:14;7.70;80.03
84435;SHT30;74664;45.620;5.138;2023-12-20T12:06:40;7.70;79.95
84435;SHT30;74664;45.620;5.138;2023-12-20T12:09:08;7.73;79.63
84435;SHT30;74664;45.620;5.138;2023-12-20T12:11:34;7.75;79.30
84435;SHT30;74664;45.620;5.138;2023-12-20T12:14:01;7.77;79.19
84435;SHT30;74664;45.620;5.138;2023-12-20T12:16:30;7.77;78.96
84435;SHT30;74664;45.620;5.138;2023-12-20T12:18:56;7.79;79.20
84435;SHT30;74664;45.620;5.138;2023-12-20T12:21:23;7.79;78.91
84435;SHT30;74664;45.620;5.138;2023-12-20T12:23:50;7.77;78.63
84435;SHT30;74664;45.620;5.138;2023-12-20T12:26:17;7.73;78.46
84435;SHT30;74664;45.620;5.138;2023-12-20T12:28:43;7.75;78.65
84435;SHT30;74664;45.620;5.138;2023-12-20T12:31:14;7.72;78.01
84435;SHT30;74664;45.620;5.138;2023-12-20T12:33:42;7.70;78.18
84435;SHT30;74664;45.620;5.138;2023-12-20T12:36:10;7.73;77.85
84435;SHT30;74664;45.620;5.138;2023-12-20T12:38:41;7.73;77.57
84435;SHT30;74664;45.620;5.138;2023-12-20T12:41:08;7.75;77.42
84435;SHT30;74664;45.620;5.138;2023-12-20T12:43:36;7.79;76.41
84435;SHT30;74664;45.620;5.138;2023-12-20T12:46:03;7.80;77.28
84435;SHT30;74664;45.620;5.138;2023-12-20T12:48:30;7.79;76.30
84435;SHT30;74664;45.620;5.138;2023-12-20T12:50:58;7.79;76.78
84435;SHT30;74664;45.620;5.138;2023-12-20T12:53:25;7.80;76.95
84435;SHT30;74664;45.620;5.138;2023-12-20T12:55:53;7.80;76.45
84435;SHT30;74664;45.620;5.138;2023-12-20T12:58:20;7.82;76.62
84435;SHT30;74664;45.620;5.138;2023-12-20T13:00:47;7.79;76.22
84435;SHT30;74664;45.620;5.138;2023-12-20T13:03:17;7.80;76.15
84435;SHT30;74664;45.620;5.138;2023-12-20T13:05:43;7.80;76.77
84435;SHT30;74664;45.620;5.138;2023-12-20T13:08:11;7.83;76.24
84435;SHT30;74664;45.620;5.138;2023-12-20T13:10:39;7.83;75.85
84435;SHT30;74664;45.620;5.138;2023-12-20T13:13:05;7.87;76.31
84435;SHT30;74664;45.620;5.138;2023-12-20T13:15:32;7.89;76.08
84435;SHT30;74664;45.620;5.138;2023-12-20T13:17:59;7.91;76.25
84435;SHT30;74664;45.620;5.138;2023-12-20T13:20:26;7.93;75.21
84435;SHT30;74664;45.620;5.138;2023-12-20T13:22:53;7.90;74.87
84435;SHT30;74664;45.620;5.138;2023-12-20T13:25:21;7.94;74.59
84435;SHT30;74664;45.620;5.138;2023-12-20T13:27:47;7.93;74.96
84435;SHT30;74664;45.620;5.138;2023-12-20T13:30:16;7.93;74.62
84435;SHT30;74664;45.620;5.138;2023-12-20T13:32:44;7.93;74.36
84435;SHT30;74664;45.620;5.138;2023-12-20T13:35:10;7.96;74.84
84435;SHT30;74664;45.620;5.138;2023-12-20T13:37:38;7.98;75.05
84435;SHT30;74664;45.620;5.138;2023-12-20T13:40:06;8.01;74.47
84435;SHT30;74664;45.620;5.138;2023-12-20T13:42:34;8.07;74.20
84435;SHT30;74664;45.620;5.138;2023-12-20T13:45:01;8.03;73.66
84435;SHT30;74664;45.620;5.138;2023-12-20T13:47:31;8.07;74.20
84435;SHT30;74664;45.620;5.138;2023-12-20T13:49:57;8.00;74.16
84435;SHT30;74664;45.620;5.138;2023-12-20T13:52:24;8.00;74.30
84435;SHT30;74664;45.620;5.138;2023-12-20T13:54:51;7.97;74.06
84435;SHT30;74664;45.620;5.138;2023-12-20T13:57:18;7.97;74.12
84435;SHT30;74664;45.620;5.138;2023-12-20T13:59:50;7.91;74.23
84435;SHT30;74664;45.620;5.138;2023-12-20T14:02:17;7.94;74.42
84435;SHT30;74664;45.620;5.138;2023-12-20T14:04:43;7.93;74.49
84435;SHT30;74664;45.620;5.138;2023-12-20T14:07:10;7.96;74.64
84435;SHT30;74664;45.620;5.138;2023-12-20T14:09:37;7.93;74.55
84435;SHT30;74664;45.620;5.138;2023-12-20T14:12:05;7.93;74.56
84435;SHT30;74664;45.620;5.138;2023-12-20T14:14:32;7.89;74.27
84435;SHT30;74664;45.620;5.138;2023-12-20T14:17:00;7.86;73.95
84435;SHT30;74664;45.620;5.138;2023-12-20T14:19:27;7.82;74.28
84435;SHT30;74664;45.620;5.138;2023-12-20T14:21:53;7.79;73.75
84435;SHT30;74664;45.620;5.138;2023-12-20T14:24:20;7.73;73.91
84435;SHT30;74664;45.620;5.138;2023-12-20T14:26:47;7.70;73.26
84435;SHT30;74664;45.620;5.138;2023-12-20T14:29:14;7.67;73.57
84435;SHT30;74664;45.620;5.138;2023-12-20T14:31:44;7.67;73.33
84435;SHT30;74664;45.620;5.138;2023-12-20T14:34:12;7.62;72.77
84435;SHT30;74664;45.620;5.138;2023-12-20T14:36:42;7.63;73.51
84435;SHT30;74664;45.620;5.138;2023-12-20T14:39:09;7.66;73.78
84435;SHT30;74664;45.620;5.138;2023-12-20T14:41:38;7.63;73.14
84435;SHT30;74664;45.620;5.138;2023-12-20T14:44:06;7.66;73.66
84435;SHT30;74664;45.620;5.138;2023-12-20T14:46:36;7.63;73.80
84435;SHT30;74664;45.620;5.138;2023-12-20T14:49:05;7.63;73.79
84435;SHT30;74664;45.620;5.138;2023-12-20T14:51:37;7.62;73.69
84435;SHT30;74664;45.620;5.138;2023-12-20T14:54:05;7.63;73.91
84435;SHT30;74664;45.620;5.138;2023-12-20T14:56:37;7.63;74.11
84435;SHT30;74664;45.620;5.138;2023-12-20T14:59:04;7.61;74.00
84435;SHT30;74664;45.620;5.138;2023-12-20T15:01:34;7.58;74.00
84435;SHT30;74664;45.620;5.138;2023-12-20T15:04:01;7.59;74.16
84435;SHT30;74664;45.620;5.138;2023-12-20T15:06:32;7.61;74.25
84435;SHT30;74664;45.620;5.138;2023-12-20T15:09:00;7.56;74.23
84435;SHT30;74664;45.620;5.138;2023-12-20T15:11:30;7.61;74.30
84435;SHT30;74664;45.620;5.138;2023-12-20T15:14:00;7.61;74.29
84435;SHT30;74664;45.620;5.138;2023-12-20T15:16:28;7.62;74.18
84435;SHT30;74664;45.620;5.138;2023-12-20T15:18:57;7.62;74.43
84435;SHT30;74664;45.620;5.138;2023-12-20T15:21:24;7.63;74.34
84435;SHT30;74664;45.620;5.138;2023-12-20T15:23:57;7.61;74.39
84435;SHT30;74664;45.620;5.138;2023-12-20T15:26:32;7.62;74.31
84435;SHT30;74664;45.620;5.138;2023-12-20T15:28:59;7.62;74.33
84435;SHT30;74664;45.620;5.138;2023-12-20T15:31:27;7.59;74.17
84435;SHT30;74664;45.620;5.138;2023-12-20T15:33:53;7.61;74.19
84435;SHT30;74664;45.620;5.138;2023-12-20T15:36:20;7.58;74.28
84435;SHT30;74664;45.620;5.138;2023-12-20T15:38:47;7.61;74.36
84435;SHT30;74664;45.620;5.138;2023-12-20T15:41:17;7.59;74.42
84435;SHT30;74664;45.620;5.138;2023-12-20T15:43:45;7.62;74.42
84435;SHT30;74664;45.620;5.138;2023-12-20T15:46:12;7.61;74.33